Time;durP1;ratioP1;P1;durP2;ratioP2;P2;SDS_P1;SDS_P2;PMS_P1;PMS_P2;Temp;Humidity;BMP_temperature;BMP_pressure;BME280_temperature;BME280_humidity;BME280_pressure;Samples;Min_cycle;Max_cycle;Signal;HPM_P1;HPM_P2
2021/11/25 00:00:21;;;;;;;2.50;1.60;;;21.10;50.70;;;;;;5037996;28;20131;-55
2021/11/25 00:02:47;;;;;;;3.67;1.65;;;21.10;50.70;;;;;;5031713;28;20119;-54
2021/11/25 00:05:13;;;;;;;2.10;1.40;;;21.10;50.70;;;;;;5030791;28;20056;-56
2021/11/25 00:07:40;;;;;;;3.20;1.40;;;21.00;50.70;;;;;;5041460;28;20377;-58
2021/11/25 00:10:07;;;;;;;2.20;1.40;;;21.00;50.70;;;;;;5034944;28;20029;-59
2021/11/25 00:12:32;;;;;;;2.35;1.50;;;21.00;50.70;;;;;;5038611;28;20421;-58
2021/11/25 00:14:58;;;;;;;2.70;1.60;;;21.00;50.80;;;;;;5038262;28;20139;-58
2021/11/25 00:17:24;;;;;;;3.22;1.55;;;21.00;50.80;;;;;;5036816;28;20044;-59
2021/11/25 00:19:49;;;;;;;2.42;1.45;;;20.90;50.70;;;;;;5037655;28;20115;-59
2021/11/25 00:22:15;;;;;;;2.30;1.58;;;20.90;50.70;;;;;;5037060;28;20100;-59
2021/11/25 00:24:41;;;;;;;2.50;1.45;;;20.90;50.70;;;;;;5029695;28;20409;-57
2021/11/25 00:27:07;;;;;;;2.17;1.52;;;20.90;50.70;;;;;;5030117;28;20477;-59
2021/11/25 00:29:33;;;;;;;2.10;1.33;;;20.90;50.70;;;;;;5030440;28;20032;-59
2021/11/25 00:31:58;;;;;;;2.38;1.45;;;20.90;50.80;;;;;;5034848;28;20046;-59
2021/11/25 00:34:24;;;;;;;1.92;1.30;;;20.80;50.70;;;;;;5035947;28;20024;-58
2021/11/25 00:36:50;;;;;;;2.10;1.30;;;20.80;50.70;;;;;;5028192;28;20134;-60
2021/11/25 00:39:15;;;;;;;2.50;1.63;;;20.80;50.80;;;;;;5028851;28;20067;-57
2021/11/25 00:41:45;;;;;;;2.10;1.50;;;20.80;50.80;;;;;;5029926;28;20034;-56
2021/11/25 00:44:10;;;;;;;1.95;1.35;;;20.80;50.80;;;;;;5033201;28;20791;-58
2021/11/25 00:46:36;;;;;;;3.17;1.30;;;20.70;50.80;;;;;;5031160;28;20125;-59
2021/11/25 00:49:01;;;;;;;1.65;1.23;;;20.70;50.80;;;;;;5039257;28;20025;-58
2021/11/25 00:51:27;;;;;;;2.00;1.40;;;20.70;50.80;;;;;;5030381;28;20033;-58
2021/11/25 00:53:53;;;;;;;1.85;1.40;;;20.70;50.80;;;;;;5028055;28;20041;-58
2021/11/25 00:56:18;;;;;;;1.95;1.20;;;20.70;50.80;;;;;;5033264;28;20068;-58
2021/11/25 00:58:44;;;;;;;2.42;1.42;;;20.70;50.90;;;;;;5033528;28;20366;-59
2021/11/25 01:01:10;;;;;;;2.20;1.40;;;20.60;50.90;;;;;;5027378;28;20060;-59
2021/11/25 01:03:35;;;;;;;2.22;1.50;;;20.60;50.80;;;;;;5031464;28;20135;-58
2021/11/25 01:06:01;;;;;;;2.35;1.63;;;20.60;50.80;;;;;;5033758;28;20087;-59
2021/11/25 01:08:27;;;;;;;2.15;1.40;;;20.60;50.80;;;;;;5030555;28;20041;-58
2021/11/25 01:10:54;;;;;;;1.95;1.45;;;20.60;50.90;;;;;;5030698;28;20026;-59
2021/11/25 01:13:19;;;;;;;1.90;1.25;;;20.50;50.80;;;;;;5031796;28;20175;-59
2021/11/25 01:15:45;;;;;;;3.55;1.20;;;20.50;50.80;;;;;;5034771;28;20132;-57
2021/11/25 01:18:14;;;;;;;2.00;1.30;;;20.50;50.90;;;;;;5027961;28;20037;-56
2021/11/25 01:20:41;;;;;;;1.80;1.33;;;20.50;50.90;;;;;;5034205;28;20041;-58
2021/11/25 01:23:10;;;;;;;2.17;1.40;;;20.50;50.90;;;;;;5035990;28;20040;-58
2021/11/25 01:25:37;;;;;;;1.70;1.20;;;20.50;50.90;;;;;;5022787;28;20155;-59
2021/11/25 01:28:03;;;;;;;1.75;1.20;;;20.40;50.90;;;;;;5039752;28;20529;-58
2021/11/25 01:30:28;;;;;;;1.85;1.33;;;20.40;50.90;;;;;;5031390;28;20023;-59
2021/11/25 01:32:55;;;;;;;2.17;1.50;;;20.40;51.00;;;;;;5034701;28;20108;-59
2021/11/25 01:35:20;;;;;;;2.30;1.55;;;20.40;51.00;;;;;;5031444;28;20692;-59
2021/11/25 01:37:48;;;;;;;2.35;1.45;;;20.40;51.00;;;;;;5053930;28;20117;-58
2021/11/25 01:40:14;;;;;;;2.35;1.83;;;20.40;51.00;;;;;;5031749;28;20458;-59
2021/11/25 01:42:41;;;;;;;2.40;1.50;;;20.40;51.00;;;;;;5035336;28;20033;-56
2021/11/25 01:45:09;;;;;;;2.10;1.40;;;20.40;51.00;;;;;;5038894;28;20726;-57
2021/11/25 01:47:36;;;;;;;2.78;1.50;;;20.30;51.00;;;;;;5036618;28;20466;-55
2021/11/25 01:50:03;;;;;;;1.88;1.40;;;20.30;51.00;;;;;;5037230;28;20025;-59
2021/11/25 01:52:28;;;;;;;2.00;1.48;;;20.30;51.00;;;;;;5037265;28;20399;-59
2021/11/25 01:54:54;;;;;;;2.80;1.45;;;20.30;51.00;;;;;;5043850;28;20040;-60
2021/11/25 01:57:19;;;;;;;1.70;1.33;;;20.30;51.00;;;;;;5035778;28;20107;-59
2021/11/25 01:59:45;;;;;;;2.28;1.40;;;20.30;51.10;;;;;;5040882;28;20045;-58
2021/11/25 02:02:13;;;;;;;1.60;1.30;;;20.30;51.10;;;;;;5036280;28;20049;-57
2021/11/25 02:04:38;;;;;;;1.77;1.30;;;20.30;51.10;;;;;;5033375;28;20089;-58
2021/11/25 02:07:04;;;;;;;2.05;1.40;;;20.20;51.10;;;;;;5037616;28;20120;-58
2021/11/25 02:09:30;;;;;;;1.77;1.35;;;20.20;51.10;;;;;;5033523;28;20438;-59
2021/11/25 02:11:56;;;;;;;2.20;1.33;;;20.20;51.60;;;;;;5035228;28;20033;-59
2021/11/25 02:14:22;;;;;;;2.22;1.50;;;20.20;51.10;;;;;;5034494;28;20029;-59
2021/11/25 02:16:50;;;;;;;2.00;1.40;;;20.20;51.10;;;;;;5037118;28;20888;-58
2021/11/25 02:19:16;;;;;;;2.67;1.30;;;20.20;51.10;;;;;;5034165;28;20036;-58
2021/11/25 02:21:43;;;;;;;2.03;1.52;;;20.20;51.20;;;;;;5039723;28;20044;-59
2021/11/25 02:24:09;;;;;;;2.78;1.23;;;20.20;51.20;;;;;;5029018;28;20030;-57
2021/11/25 02:26:35;;;;;;;2.20;1.30;;;20.10;51.20;;;;;;5039595;28;20021;-58
2021/11/25 02:29:00;;;;;;;2.10;1.42;;;20.10;51.20;;;;;;5032015;28;20025;-59
2021/11/25 02:31:26;;;;;;;2.10;1.35;;;20.10;51.20;;;;;;5032995;28;20175;-59
2021/11/25 02:33:51;;;;;;;2.08;1.40;;;20.10;51.20;;;;;;5038136;28;20025;-59
2021/11/25 02:36:17;;;;;;;1.63;1.40;;;20.10;51.20;;;;;;5037226;28;20074;-54
2021/11/25 02:38:43;;;;;;;1.85;1.20;;;20.10;51.20;;;;;;5032442;28;20082;-59
2021/11/25 02:41:09;;;;;;;2.10;1.20;;;20.10;51.30;;;;;;5033011;28;20436;-58
2021/11/25 02:43:35;;;;;;;2.03;1.30;;;20.10;51.30;;;;;;5031908;28;20048;-59
2021/11/25 02:46:02;;;;;;;1.60;1.30;;;20.00;51.30;;;;;;5034093;28;20033;-57
2021/11/25 02:48:46;;;;;;;1.55;1.15;;;20.00;51.30;;;;;;5033656;28;20092;-55
2021/11/25 02:51:15;;;;;;;1.90;1.20;;;20.00;51.30;;;;;;5034860;28;20098;-59
2021/11/25 02:53:41;;;;;;;1.52;1.10;;;20.00;51.30;;;;;;5033268;28;20033;-58
2021/11/25 02:56:10;;;;;;;2.10;1.40;;;20.00;51.40;;;;;;5034779;28;20025;-57
2021/11/25 02:58:36;;;;;;;1.45;1.15;;;20.00;51.40;;;;;;5034571;28;20716;-59
2021/11/25 03:01:12;;;;;;;1.85;1.38;;;20.00;51.40;;;;;;5037119;28;20044;-59
2021/11/25 03:03:39;;;;;;;2.20;1.35;;;19.90;51.30;;;;;;5034555;28;20028;-59
2021/11/25 03:06:04;;;;;;;1.85;1.25;;;19.90;51.40;;;;;;5030599;28;20040;-59
2021/11/25 03:08:30;;;;;;;1.77;1.20;;;19.90;51.90;;;;;;5031988;28;20064;-57
2021/11/25 03:11:08;;;;;;;2.05;1.50;;;19.90;51.50;;;;;;5028225;28;20033;-57
2021/11/25 03:13:37;;;;;;;1.63;1.20;;;19.90;51.50;;;;;;5037247;28;20083;-58
2021/11/25 03:16:03;;;;;;;1.73;1.35;;;19.90;51.50;;;;;;5036206;28;20446;-60
2021/11/25 03:18:29;;;;;;;1.73;1.20;;;19.90;51.50;;;;;;5036945;28;20034;-57
2021/11/25 03:20:57;;;;;;;1.67;1.30;;;19.90;51.50;;;;;;5030392;28;20120;-58
2021/11/25 03:23:25;;;;;;;1.63;1.10;;;19.90;51.50;;;;;;5033838;28;20037;-56
2021/11/25 03:25:52;;;;;;;1.77;1.25;;;19.90;51.50;;;;;;5028510;28;20034;-59
2021/11/25 03:28:18;;;;;;;2.30;1.25;;;19.80;51.50;;;;;;5033520;28;20044;-59
2021/11/25 03:30:43;;;;;;;1.58;1.10;;;19.80;51.50;;;;;;5035267;28;20109;-56
2021/11/25 03:33:11;;;;;;;1.83;1.30;;;19.90;51.60;;;;;;5034124;28;20508;-56
2021/11/25 03:35:38;;;;;;;1.70;1.20;;;19.80;51.60;;;;;;5034608;28;20401;-59
2021/11/25 03:38:04;;;;;;;1.63;1.17;;;19.80;51.60;;;;;;5032718;28;20040;-56
2021/11/25 03:40:30;;;;;;;1.92;1.13;;;19.80;51.60;;;;;;5033647;28;20044;-56
2021/11/25 03:42:56;;;;;;;1.67;1.20;;;19.80;51.60;;;;;;5038257;28;20033;-59
2021/11/25 03:45:22;;;;;;;2.10;1.30;;;19.80;51.60;;;;;;5031083;28;20082;-54
2021/11/25 03:47:48;;;;;;;1.88;1.38;;;19.80;51.60;;;;;;5034179;28;20049;-60
2021/11/25 03:50:14;;;;;;;1.65;1.25;;;19.80;51.70;;;;;;5033788;28;20100;-58
2021/11/25 03:52:41;;;;;;;2.00;1.27;;;19.80;51.60;;;;;;5034943;28;20146;-59
2021/11/25 03:55:09;;;;;;;1.40;1.15;;;19.80;51.60;;;;;;5029430;28;20029;-59
2021/11/25 03:57:34;;;;;;;2.08;1.20;;;19.80;51.70;;;;;;5030100;28;20800;-55
2021/11/25 04:00:00;;;;;;;1.77;1.27;;;19.80;51.70;;;;;;5032418;28;20089;-54
2021/11/25 04:02:26;;;;;;;1.40;1.20;;;19.80;51.70;;;;;;5028834;28;20037;-53
2021/11/25 04:04:52;;;;;;;1.50;1.15;;;19.80;52.20;;;;;;5032160;28;20033;-58
2021/11/25 04:07:17;;;;;;;2.00;1.20;;;19.80;51.70;;;;;;5032100;28;20109;-58
2021/11/25 04:09:43;;;;;;;1.42;1.20;;;19.70;51.70;;;;;;5030629;28;20064;-59
2021/11/25 04:12:09;;;;;;;1.77;1.25;;;19.70;51.70;;;;;;5032399;28;20033;-59
2021/11/25 04:14:35;;;;;;;1.67;1.25;;;19.70;51.80;;;;;;5034927;28;20446;-58
2021/11/25 04:17:01;;;;;;;1.98;1.30;;;19.70;51.80;;;;;;5034764;28;20512;-58
2021/11/25 04:19:27;;;;;;;1.50;1.13;;;19.70;51.80;;;;;;5036372;28;20033;-55
2021/11/25 04:21:53;;;;;;;1.60;1.13;;;19.70;51.80;;;;;;5033888;28;20047;-58
2021/11/25 04:24:19;;;;;;;1.33;1.10;;;19.70;51.90;;;;;;5031575;28;20046;-60
2021/11/25 04:26:44;;;;;;;1.52;1.20;;;19.70;51.90;;;;;;5029431;28;20041;-58
2021/11/25 04:29:11;;;;;;;1.33;1.00;;;19.70;51.90;;;;;;5027790;28;20025;-58
2021/11/25 04:37:07;;;;;;;1.38;1.10;;;19.60;51.90;;;;;;5034552;28;20039;-57
2021/11/25 04:39:32;;;;;;;1.70;1.20;;;19.60;52.00;;;;;;5031296;28;20025;-57
2021/11/25 04:41:58;;;;;;;1.40;1.10;;;19.60;52.00;;;;;;5035036;28;20570;-55
2021/11/25 04:44:24;;;;;;;1.38;1.00;;;19.60;52.00;;;;;;5032747;28;20036;-56
2021/11/25 04:46:49;;;;;;;1.90;1.10;;;19.60;52.10;;;;;;5032650;28;20072;-58
2021/11/25 04:49:15;;;;;;;1.35;1.08;;;19.60;52.10;;;;;;5031318;28;20032;-59
2021/11/25 04:51:41;;;;;;;1.48;1.13;;;19.50;52.10;;;;;;5032299;28;20052;-57
2021/11/25 04:54:07;;;;;;;1.60;1.10;;;19.60;52.20;;;;;;5034245;28;20036;-58
2021/11/25 04:56:33;;;;;;;1.30;1.05;;;19.50;52.60;;;;;;5029744;28;20476;-59
2021/11/25 04:58:59;;;;;;;1.40;1.10;;;19.60;52.20;;;;;;5031253;28;20504;-59
2021/11/25 05:01:25;;;;;;;1.40;1.00;;;19.50;52.10;;;;;;5029350;28;20095;-57
2021/11/25 05:03:51;;;;;;;1.38;1.10;;;19.60;52.20;;;;;;5032547;28;20029;-58
2021/11/25 05:06:16;;;;;;;1.50;1.20;;;19.60;52.20;;;;;;5028756;28;20032;-57
2021/11/25 05:08:42;;;;;;;1.80;1.20;;;19.50;52.20;;;;;;5029498;28;20507;-59
2021/11/25 05:11:08;;;;;;;1.40;1.00;;;19.50;52.20;;;;;;5032638;28;20017;-58
2021/11/25 05:13:34;;;;;;;1.65;1.10;;;19.50;52.20;;;;;;5032316;28;20025;-59
2021/11/25 05:16:01;;;;;;;1.42;1.00;;;19.50;52.30;;;;;;5035701;28;20031;-59
2021/11/25 05:18:27;;;;;;;1.40;1.20;;;19.50;52.30;;;;;;5035991;28;20037;-60
2021/11/25 05:20:53;;;;;;;1.75;1.10;;;19.50;52.30;;;;;;5035050;28;20025;-59
2021/11/25 05:23:19;;;;;;;1.50;1.10;;;19.50;52.30;;;;;;5034130;28;20058;-58
2021/11/25 05:25:46;;;;;;;1.17;0.98;;;19.50;52.30;;;;;;5032613;28;20123;-56
2021/11/25 05:28:12;;;;;;;1.50;1.10;;;19.50;52.30;;;;;;5036416;28;20060;-58
2021/11/25 05:30:37;;;;;;;1.35;1.00;;;19.50;52.30;;;;;;5037021;28;20238;-59
2021/11/25 05:33:04;;;;;;;1.92;1.15;;;19.50;52.40;;;;;;5041475;28;20044;-54
2021/11/25 05:35:30;;;;;;;1.40;1.00;;;19.50;52.40;;;;;;5030688;28;20492;-53
2021/11/25 05:37:56;;;;;;;1.80;1.05;;;19.50;52.40;;;;;;5037322;28;20390;-59
2021/11/25 05:40:22;;;;;;;1.90;1.10;;;19.50;52.40;;;;;;5031197;28;20033;-58
2021/11/25 05:42:47;;;;;;;2.08;1.10;;;19.50;52.40;;;;;;5033387;28;20120;-57
2021/11/25 05:45:16;;;;;;;1.52;1.17;;;19.50;52.50;;;;;;5031419;28;20139;-55
2021/11/25 05:47:42;;;;;;;1.20;0.82;;;19.50;52.40;;;;;;5034020;28;20057;-58
2021/11/25 05:50:13;;;;;;;1.50;1.10;;;19.50;52.50;;;;;;5036526;28;20756;-59
2021/11/25 05:52:39;;;;;;;1.63;1.08;;;19.50;52.50;;;;;;5037299;28;20788;-55
2021/11/25 05:55:07;;;;;;;1.52;1.13;;;19.50;53.00;;;;;;5029519;28;20131;-60
2021/11/25 05:57:33;;;;;;;1.40;0.98;;;19.50;52.50;;;;;;5034692;28;20168;-58
2021/11/25 05:59:58;;;;;;;2.30;1.08;;;19.50;52.50;;;;;;5030824;28;20108;-57
2021/11/25 06:02:24;;;;;;;2.30;1.10;;;19.50;52.50;;;;;;5027788;28;20480;-59
2021/11/25 06:04:50;;;;;;;1.92;1.20;;;19.50;52.50;;;;;;5032321;28;20532;-59
2021/11/25 06:07:16;;;;;;;1.95;1.10;;;19.50;52.60;;;;;;5034674;28;20037;-59
2021/11/25 06:09:42;;;;;;;1.48;1.00;;;19.50;52.60;;;;;;5032846;28;20069;-58
2021/11/25 06:12:08;;;;;;;1.20;0.93;;;19.50;52.60;;;;;;5031339;28;20747;-58
2021/11/25 06:14:34;;;;;;;1.98;0.90;;;19.50;52.60;;;;;;5037100;28;20017;-58
2021/11/25 06:17:02;;;;;;;1.90;1.00;;;19.50;52.60;;;;;;5036530;28;20091;-56
2021/11/25 06:19:28;;;;;;;1.75;1.30;;;19.50;52.70;;;;;;5035823;28;20122;-57
2021/11/25 06:21:54;;;;;;;2.00;0.93;;;19.40;52.60;;;;;;5029162;28;20029;-56
2021/11/25 06:24:19;;;;;;;1.80;1.20;;;19.50;52.70;;;;;;5029316;28;20029;-57
2021/11/25 06:26:49;;;;;;;1.35;1.00;;;19.50;53.20;;;;;;5030381;28;20124;-57
2021/11/25 06:29:15;;;;;;;;;;;19.70;54.10;;;;;;5036815;28;20021;-57
2021/11/25 06:31:40;;;;;;;1.20;0.90;;;20.00;53.90;;;;;;5035544;28;19986;-59
2021/11/25 06:34:06;;;;;;;1.17;0.90;;;20.20;53.80;;;;;;5034247;28;20040;-59
2021/11/25 06:36:32;;;;;;;1.30;1.00;;;20.50;53.80;;;;;;5034720;28;20120;-58
2021/11/25 06:38:58;;;;;;;1.42;0.80;;;20.70;53.80;;;;;;5028161;28;20068;-57
2021/11/25 06:41:24;;;;;;;0.98;0.80;;;20.90;53.70;;;;;;5031192;28;20060;-58
2021/11/25 06:43:50;;;;;;;1.23;0.82;;;21.20;53.60;;;;;;5035113;28;20037;-59
2021/11/25 06:46:15;;;;;;;1.25;0.80;;;21.40;53.30;;;;;;5033628;28;20055;-58
2021/11/25 06:48:41;;;;;;;1.63;0.80;;;21.70;53.10;;;;;;5031781;28;20073;-59
2021/11/25 06:51:06;;;;;;;1.77;0.80;;;22.00;52.90;;;;;;5035330;28;20038;-58
2021/11/25 06:53:32;;;;;;;0.82;0.68;;;22.20;52.70;;;;;;5036986;28;20682;-59
2021/11/25 06:55:58;;;;;;;1.20;0.70;;;22.50;52.40;;;;;;5033456;28;20025;-59
2021/11/25 06:58:23;;;;;;;1.23;0.90;;;22.70;52.30;;;;;;5037068;28;20408;-59
2021/11/25 07:00:49;;;;;;;1.80;0.90;;;23.00;51.70;;;;;;5032824;28;20037;-58
2021/11/25 07:03:15;;;;;;;1.65;1.00;;;23.30;51.10;;;;;;5037085;28;20484;-54
2021/11/25 07:05:41;;;;;;;1.20;0.90;;;23.60;50.50;;;;;;5028697;28;20037;-59
2021/11/25 07:08:07;;;;;;;1.50;1.10;;;23.70;50.40;;;;;;5031025;28;20124;-59
2021/11/25 07:10:38;;;;;;;1.08;0.90;;;23.70;50.30;;;;;;5035150;28;20060;-59
2021/11/25 07:13:04;;;;;;;1.67;0.90;;;23.80;50.20;;;;;;5038598;28;20048;-57
2021/11/25 07:15:29;;;;;;;1.75;0.90;;;24.00;50.20;;;;;;5035326;28;20064;-59
2021/11/25 07:17:56;;;;;;;0.90;0.75;;;24.10;50.10;;;;;;5030760;28;20516;-59
2021/11/25 07:20:25;;;;;;;2.22;0.75;;;24.00;50.40;;;;;;5033970;28;20029;-59
2021/11/25 07:22:50;;;;;;;1.30;0.80;;;24.00;49.90;;;;;;5033484;28;20082;-58
2021/11/25 07:25:17;;;;;;;1.38;0.90;;;24.00;49.90;;;;;;5038071;28;20033;-59
2021/11/25 07:27:45;;;;;;;1.02;0.70;;;24.00;49.90;;;;;;5036608;28;20067;-55
2021/11/25 07:30:13;;;;;;;0.73;0.70;;;23.90;49.90;;;;;;5029772;28;20104;-59
2021/11/25 07:32:39;;;;;;;1.30;0.80;;;23.90;49.90;;;;;;5033312;28;20045;-59
2021/11/25 07:35:07;;;;;;;1.15;0.77;;;23.90;50.00;;;;;;5034024;28;20030;-59
2021/11/25 07:37:33;;;;;;;1.10;0.70;;;23.90;49.90;;;;;;5030784;28;20057;-59
2021/11/25 07:39:59;;;;;;;0.85;0.70;;;23.90;50.00;;;;;;5030466;28;20064;-59
2021/11/25 07:42:25;;;;;;;0.70;0.70;;;23.90;50.00;;;;;;5033452;28;20032;-58
2021/11/25 07:44:51;;;;;;;1.00;0.80;;;23.90;50.10;;;;;;5029790;28;20041;-57
2021/11/25 07:47:21;;;;;;;0.85;0.77;;;23.90;50.20;;;;;;5035867;28;20037;-58
2021/11/25 07:49:47;;;;;;;1.05;0.77;;;23.90;50.30;;;;;;5032857;28;20026;-57
2021/11/25 07:52:13;;;;;;;1.00;0.80;;;23.90;50.80;;;;;;5031739;28;20143;-60
2021/11/25 07:54:41;;;;;;;1.00;0.77;;;23.90;50.30;;;;;;5027135;28;20029;-58
2021/11/25 07:57:08;;;;;;;0.87;0.77;;;23.80;50.40;;;;;;5034826;28;20108;-61
2021/11/25 07:59:34;;;;;;;1.23;0.80;;;23.90;50.70;;;;;;5038259;28;20033;-58
2021/11/25 08:01:59;;;;;;;1.20;0.90;;;23.90;50.60;;;;;;5030065;28;20040;-59
2021/11/25 08:04:25;;;;;;;1.00;0.70;;;23.80;50.70;;;;;;5034059;28;20042;-58
2021/11/25 08:06:51;;;;;;;0.77;0.70;;;23.90;50.90;;;;;;5030453;28;20584;-59
2021/11/25 08:09:17;;;;;;;1.23;0.70;;;23.90;51.00;;;;;;5039846;28;20091;-59
2021/11/25 08:11:43;;;;;;;0.70;0.60;;;23.90;51.20;;;;;;5033953;28;20117;-58
2021/11/25 08:14:09;;;;;;;0.90;0.77;;;23.90;51.10;;;;;;5031749;28;20041;-58
2021/11/25 08:16:34;;;;;;;1.00;0.70;;;23.90;51.30;;;;;;5042093;28;20073;-59
2021/11/25 08:19:00;;;;;;;1.00;0.70;;;23.80;51.20;;;;;;5030241;28;20028;-58
2021/11/25 08:21:25;;;;;;;0.75;0.70;;;23.90;51.30;;;;;;5035115;28;20949;-56
2021/11/25 08:23:51;;;;;;;1.00;0.60;;;23.80;51.10;;;;;;5031481;28;20042;-56
2021/11/25 08:26:17;;;;;;;0.95;0.60;;;23.90;51.50;;;;;;5032121;28;20040;-54
2021/11/25 08:28:42;;;;;;;1.10;0.80;;;23.80;51.40;;;;;;5030307;28;20064;-59
2021/11/25 08:31:08;;;;;;;0.88;0.70;;;23.90;51.40;;;;;;5032239;28;20064;-58
2021/11/25 08:33:58;;;;;;;0.93;0.60;;;23.80;51.30;;;;;;5035763;28;20043;-58
2021/11/25 08:36:24;;;;;;;1.05;0.80;;;23.80;51.40;;;;;;5036750;28;20029;-58
2021/11/25 08:38:50;;;;;;;0.60;0.60;;;23.80;51.40;;;;;;5026414;28;20095;-58
2021/11/25 08:41:16;;;;;;;0.63;0.63;;;23.80;51.40;;;;;;5029088;28;20039;-58
2021/11/25 08:43:41;;;;;;;1.73;1.08;;;23.80;51.40;;;;;;5034239;28;20136;-58
2021/11/25 08:46:07;;;;;;;1.73;1.23;;;23.80;48.60;;;;;;5028967;28;20041;-56
2021/11/25 08:48:33;;;;;;;2.13;1.13;;;23.70;47.30;;;;;;5029067;28;20029;-57
2021/11/25 08:50:59;;;;;;;1.52;1.10;;;23.70;47.60;;;;;;5038512;28;20480;-58
2021/11/25 08:53:24;;;;;;;1.88;1.10;;;23.70;48.00;;;;;;5032577;28;20025;-59
2021/11/25 08:55:51;;;;;;;1.73;1.10;;;23.70;48.30;;;;;;5030165;28;20044;-58
2021/11/25 08:58:17;;;;;;;1.20;0.90;;;23.60;48.50;;;;;;5035451;28;20451;-56
2021/11/25 09:00:43;;;;;;;2.65;1.05;;;23.70;48.80;;;;;;5030247;28;20095;-58
2021/11/25 09:03:09;;;;;;;1.60;0.90;;;23.70;49.70;;;;;;5032017;28;20110;-58
2021/11/25 09:05:34;;;;;;;1.90;1.05;;;23.70;49.90;;;;;;5027725;28;20033;-58
2021/11/25 09:08:01;;;;;;;1.48;0.90;;;23.70;49.90;;;;;;5031934;28;20025;-54
2021/11/25 09:10:27;;;;;;;3.42;1.65;;;23.70;50.10;;;;;;5028936;28;20032;-58
2021/11/25 09:12:54;;;;;;;8.45;3.90;;;23.70;50.20;;;;;;5036597;28;20049;-58
2021/11/25 09:15:20;;;;;;;4.80;2.95;;;23.70;48.60;;;;;;5037725;28;20060;-59
2021/11/25 09:17:46;;;;;;;3.55;2.00;;;23.60;45.00;;;;;;5033513;28;20108;-58
2021/11/25 09:20:12;;;;;;;3.30;1.80;;;23.60;45.50;;;;;;5031168;28;20125;-57
2021/11/25 09:22:39;;;;;;;2.53;1.50;;;23.50;46.10;;;;;;5031837;28;20476;-58
2021/11/25 09:25:06;;;;;;;3.70;1.65;;;23.50;46.80;;;;;;5030349;28;20718;-59
2021/11/25 09:27:32;;;;;;;2.88;1.60;;;23.50;47.30;;;;;;5032788;28;20541;-55
2021/11/25 09:29:57;;;;;;;2.83;1.38;;;23.50;47.80;;;;;;5031896;28;20109;-57
2021/11/25 09:32:23;;;;;;;2.55;1.27;;;23.50;48.00;;;;;;5026781;28;20117;-57
2021/11/25 09:34:49;;;;;;;2.13;1.15;;;23.50;48.30;;;;;;5030971;28;20118;-58
2021/11/25 09:37:15;;;;;;;1.70;1.17;;;23.50;48.60;;;;;;5032569;28;20522;-53
2021/11/25 09:39:40;;;;;;;3.15;1.30;;;23.50;48.90;;;;;;5029945;28;20033;-53
2021/11/25 09:42:06;;;;;;;2.95;1.35;;;23.60;49.60;;;;;;5034760;28;20044;-58
2021/11/25 09:44:32;;;;;;;2.42;1.27;;;23.60;49.40;;;;;;5039270;28;20041;-57
2021/11/25 09:46:58;;;;;;;2.13;1.25;;;23.60;49.60;;;;;;5030790;28;20136;-58
2021/11/25 09:49:26;;;;;;;1.80;1.20;;;23.60;50.00;;;;;;5029301;28;20024;-59
2021/11/25 09:51:53;;;;;;;2.05;1.20;;;23.60;50.20;;;;;;5036913;28;20757;-59
2021/11/25 09:54:20;;;;;;;2.75;1.20;;;23.60;50.10;;;;;;5028713;28;20107;-56
2021/11/25 09:56:46;;;;;;;1.65;1.10;;;23.60;50.20;;;;;;5032611;28;20025;-58
2021/11/25 09:59:12;;;;;;;2.42;1.20;;;23.60;50.90;;;;;;5035370;28;20029;-58
2021/11/25 10:01:38;;;;;;;1.73;1.20;;;23.60;50.90;;;;;;5034602;28;20078;-57
2021/11/25 10:04:03;;;;;;;1.50;1.10;;;23.60;50.70;;;;;;5036009;28;20077;-58
2021/11/25 10:06:33;;;;;;;2.85;1.30;;;23.60;50.80;;;;;;5037315;28;20029;-52
2021/11/25 10:08:59;;;;;;;2.15;1.10;;;23.60;51.20;;;;;;5036551;28;20516;-56
2021/11/25 10:11:34;;;;;;;1.85;1.25;;;23.60;51.00;;;;;;5038292;28;20081;-58
2021/11/25 10:14:05;;;;;;;1.70;1.15;;;23.60;50.90;;;;;;5038173;28;20841;-58
2021/11/25 10:16:53;;;;;;;2.20;1.20;;;23.70;52.10;;;;;;5036918;28;20039;-58
2021/11/25 10:19:27;;;;;;;2.65;1.10;;;23.70;52.30;;;;;;5035643;28;20035;-59
2021/11/25 10:21:56;;;;;;;1.70;1.02;;;23.70;51.60;;;;;;5031259;28;20048;-59
2021/11/25 10:24:43;;;;;;;2.00;1.10;;;23.70;51.70;;;;;;5032309;28;20033;-55
2021/11/25 10:27:19;;;;;;;1.55;1.00;;;23.70;51.80;;;;;;5034926;28;20030;-57
2021/11/25 10:29:47;;;;;;;1.50;1.08;;;23.70;51.60;;;;;;5032894;28;20041;-57
2021/11/25 10:32:21;;;;;;;2.05;1.25;;;23.70;51.70;;;;;;5035729;28;20491;-57
2021/11/25 10:35:07;;;;;;;24.88;8.90;;;23.70;53.20;;;;;;5030206;28;20450;-58
2021/11/25 10:37:51;;;;;;;14.05;5.78;;;23.70;52.10;;;;;;5034933;28;20474;-59
2021/11/25 10:40:24;;;;;;;14.18;5.70;;;23.70;52.10;;;;;;5032921;28;20033;-58
2021/11/25 10:42:49;;;;;;;13.10;5.10;;;23.70;52.00;;;;;;5029808;28;20038;-57
2021/11/25 10:45:18;;;;;;;13.68;5.40;;;23.70;52.10;;;;;;5033939;28;20048;-55
2021/11/25 10:47:55;;;;;;;14.25;5.03;;;23.70;52.30;;;;;;5036566;28;20036;-59
2021/11/25 10:50:21;;;;;;;14.10;5.07;;;23.80;52.70;;;;;;5031929;28;20033;-58
2021/11/25 10:52:48;;;;;;;14.98;5.03;;;23.70;52.40;;;;;;5033597;28;20036;-58
2021/11/25 10:55:14;;;;;;;10.55;4.43;;;23.80;53.00;;;;;;5030945;28;20705;-58
2021/11/25 10:57:48;;;;;;;12.40;4.47;;;23.80;52.30;;;;;;5033245;28;20041;-54
2021/11/25 11:00:36;;;;;;;13.73;4.65;;;23.80;52.20;;;;;;5034645;28;20520;-56
2021/11/25 11:03:07;;;;;;;9.20;4.10;;;23.80;52.20;;;;;;5036858;28;20116;-56
2021/11/25 11:05:56;;;;;;;11.32;4.45;;;23.80;52.30;;;;;;5031312;28;20394;-59
2021/11/25 11:08:27;;;;;;;11.35;4.20;;;23.80;52.60;;;;;;5030202;28;20029;-58
2021/11/25 11:11:02;;;;;;;10.82;4.05;;;23.80;52.60;;;;;;5026610;28;20029;-54
2021/11/25 11:18:47;;;;;;;8.88;3.83;;;23.90;52.60;;;;;;5032379;28;20038;-56
2021/11/25 11:21:32;;;;;;;8.60;3.78;;;23.90;52.60;;;;;;5030780;28;20039;-57
2021/11/25 11:24:00;;;;;;;9.38;4.30;;;23.90;52.60;;;;;;5027773;28;20457;-58
2021/11/25 11:26:26;;;;;;;4.83;2.80;;;23.90;51.40;;;;;;5027501;28;20029;-57
2021/11/25 11:28:52;;;;;;;4.13;1.90;;;23.80;47.80;;;;;;5032956;28;20063;-58
2021/11/25 11:31:19;;;;;;;3.85;1.90;;;23.70;47.20;;;;;;5032059;28;20033;-58
2021/11/25 11:33:47;;;;;;;4.28;2.30;;;23.70;46.80;;;;;;5031671;28;20104;-57
2021/11/25 11:36:13;;;;;;;3.63;2.15;;;23.60;46.70;;;;;;5029802;28;20052;-58
2021/11/25 11:38:39;;;;;;;3.70;2.00;;;23.50;46.30;;;;;;5028830;28;20048;-58
2021/11/25 11:41:05;;;;;;;3.70;2.05;;;23.50;46.60;;;;;;5028854;28;20386;-58
2021/11/25 11:43:31;;;;;;;3.65;2.20;;;23.50;46.40;;;;;;5032875;28;20029;-59
2021/11/25 11:45:58;;;;;;;4.32;2.20;;;23.40;46.40;;;;;;5034451;28;20513;-58
2021/11/25 11:48:25;;;;;;;4.00;2.10;;;23.40;46.30;;;;;;5033230;28;20033;-58
2021/11/25 11:50:54;;;;;;;3.03;2.05;;;23.30;46.30;;;;;;5027859;28;20025;-51
2021/11/25 11:53:23;;;;;;;3.80;2.13;;;23.30;46.10;;;;;;5026510;28;20132;-58
2021/11/25 11:56:00;;;;;;;3.60;2.42;;;23.20;46.30;;;;;;5027424;28;20037;-56
2021/11/25 11:58:25;;;;;;;3.92;2.00;;;23.20;46.50;;;;;;5030978;28;20021;-56
2021/11/25 12:01:14;;;;;;;4.05;2.15;;;23.20;46.60;;;;;;5030848;28;20322;-58
2021/11/25 12:03:47;;;;;;;3.50;1.83;;;23.20;46.60;;;;;;5024881;28;20684;-55
2021/11/25 12:06:33;;;;;;;3.80;1.70;;;23.10;46.80;;;;;;5031384;28;20036;-58
2021/11/25 12:09:02;;;;;;;4.25;2.00;;;23.10;46.80;;;;;;5030943;28;20061;-57
2021/11/25 12:12:05;;;;;;;3.30;1.92;;;23.10;46.80;;;;;;5027549;28;20120;-58
2021/11/25 12:14:32;;;;;;;3.08;1.95;;;23.10;47.00;;;;;;5023206;28;20395;-54
2021/11/25 12:17:01;;;;;;;3.35;1.88;;;23.10;46.90;;;;;;5031205;28;20044;-58
2021/11/25 12:19:36;;;;;;;4.07;2.10;;;23.10;46.90;;;;;;5029996;28;20032;-58
2021/11/25 12:22:22;;;;;;;3.65;2.00;;;23.10;47.10;;;;;;5031385;28;20044;-59
2021/11/25 12:24:50;;;;;;;3.67;1.98;;;23.10;47.20;;;;;;5025093;28;20070;-58
2021/11/25 12:30:07;;;;;;;3.83;2.03;;;23.10;47.30;;;;;;5025241;28;20062;-57
2021/11/25 12:32:45;;;;;;;3.20;2.08;;;23.00;47.30;;;;;;5025625;28;20139;-58
2021/11/25 12:35:11;;;;;;;3.38;1.92;;;23.00;47.40;;;;;;5030474;28;20029;-58
2021/11/25 12:37:46;;;;;;;3.92;1.92;;;23.00;47.50;;;;;;5043062;28;20492;-58
2021/11/25 12:40:14;;;;;;;2.85;1.80;;;23.00;47.60;;;;;;5027982;28;20048;-59
2021/11/25 12:42:59;;;;;;;3.45;2.10;;;22.90;47.60;;;;;;5028358;28;20159;-59
2021/11/25 12:45:26;;;;;;;2.83;1.90;;;23.00;47.60;;;;;;5030420;28;20144;-56
2021/11/25 12:48:08;;;;;;;5.07;4.00;;;22.90;45.30;;;;;;5030839;28;20031;-54
2021/11/25 12:51:01;;;;;;;9.38;5.68;;;22.80;38.20;;;;;;5032280;28;20097;-58
2021/11/25 12:53:36;;;;;;;9.02;6.95;;;22.50;34.70;;;;;;5027866;28;20029;-53
2021/11/25 12:56:15;;;;;;;8.93;5.20;;;22.20;37.70;;;;;;5024810;28;20074;-59
2021/11/25 12:58:46;;;;;;;5.78;3.67;;;22.20;41.40;;;;;;5032189;28;20039;-56
2021/11/25 13:01:25;;;;;;;4.78;3.00;;;22.20;44.60;;;;;;5028037;28;20051;-59